Flowerfield, Illinois
Current Conditions -  °F | °C
As of 1:51 AM on Thursday 29 Jan 2015 (Local Time) from KORD Reporting Station
Overcast Overcast  
Wind Chill: 27°   Ceiling: 9500
Heat Index: 35°   Visibility: 10mi
Dew Point: 26°   Wind: 10mph
Humidity: 70%   Direction: 170°S
Pressure: 29.75"   Gusts: NA
Location:  41.8742°N, 88.0172°W
Report Text: KORD 290751Z 17009KT 10SM OVC095 02/M03 A2975 RMK AO2 SLP079 T00171033
Loading
Personal Weather Stations






























Interactive Weather Map New forecast layout! Learn more

10-Day Weather Forecast

Advertisements
Track Severe Weather on mobile